« 定点 富山空港 2024/4/2 tue | トップページ | 定点 伏木・富山空港・東八尾 2024/4/7 sun »

2024/04/06

定点 富山空港他 2024/4/6 sat

世の中、入学式や入社式も終わって、心新たに新年度の始まりです。

RJNT 060000Z 33003KT 290V360 9999 FEW030 BKN/// 12/06 Q1021

20240406_0iwase_00dongyu

まずは難破船 手前でビーチバレーの準備をしています。

RJNT 060100Z 34004KT 310V020 9999 FEW030 BKN/// 14/06 Q1021

20240406_rjnt_01ja76an

河原に出向いて、ハクモクレンは今が盛り。

20240406_rjnt_02ja76an

ANA315 RJTT-RJNT JA76AN B737-881

20240406_rjnt_03n708gt

GTI8067 LIMC-RJAA N708GT B777-F

20240406_rjnt_04n708gt

大陸から成田に向かう飛行機雲が流れず、いく筋も

RJNT 060200Z 34005KT 290V020 9999 FEW020 BKN/// 15/07 Q1020

20240406_rjnt_05b223r

HLF8827 ZSYT-RJAA B-223R B737-86NBCF

赤いエンジンカウルがかわいいセントラル

20240406_rjnt_06ja201m

JA201M PA-28RT-201T

20240406_rjnt_07ja93nh

あらら、進入滑走路を間違えてダウンウインド。訂正するので、捻りが見れました。

20240406_rjnt_08ja93nh

JA93NH AW139 ANH

20240406_rjnt_09ja93nh

赤木蓮は、これから開花

20240406_rjnt_10ja76an

ANA316 RJNT-RJTT JA76AN B737-881

20240406_rjnt_11ja76an

RJNT 060300Z 32004KT 280V360 9999 FEW020 BKN/// 17/07 Q1019

20240406_rjnt_12ja66an
20240406_rjnt_13ja66an

ANA1182 RJCC-RJNT JA66AN B737-881

20240406_rjnt_14ja66an
20240406_rjnt_15ja173b

JA173B BK117C-2 THK 富山県ドクターヘリ

20240406_rjnt_16ja93nh

JA93NH↑ 給油して名古屋にお帰り

20240406_rjnt_17ja173b

JA173B こちらも帰還

20240406_rjnt_18b5260
20240406_rjnt_19b5260

CSH825 ZSPD-RJNT B-5260 B737-76D

20240406_rjnt_20b5260
20240406_rjnt_21ja201m

JA201M↑ 脚の引っ込む飛行機はカッコイイ

20240406_rjnt_22ja201m

またいらっしー

RJNT 060400Z 36006KT 320V030 9999 FEW020 BKN/// 19/08 Q1018

20240406_rjnt_23ja66an
20240406_rjnt_24ja66an
20240406_rjnt_25ja66an

ANA1181 RJNT-RJCC JA66AN B737-881

20240406_rjnt_26ja66an

脚の引っ込む飛行機はカッコイイ

20240406_rjnt_27ja979a

広島からやって来たみたい。到着は場所が遠くて撮影できず。

20240406_rjnt_28ja979a

JA979A AW139 JCG 「せとわし」第六管区海上保安本部

20240406_rjnt_29ja979a

IFRで仙台へ TOEのラジアルをアラインします。この後脚上。

20240406_rjnt_30ja119w

今日も新人さん訓練

20240406_rjnt_31ja119w

JA119W↑ AW139 富山県消防防災

20240406_rjnt_32ja119w

脚の引っ込む飛行機はカッコイイ

RJNT 060500Z 01008KT 340V050 9999 FEW020 BKN/// 17/08 Q1018

20240406_rjnt_33b5260

今日は、ほぼ定刻

20240406_rjnt_34b5260
20240406_rjnt_35b5260
20240406_rjnt_36b5260

CSH826 RJNT-ZSPD B-5260 B737-76D

20240406_rjnt_37ja3818

JA3818↓ C206 KCK

20240406_rjnt_38ja119w

JA119W↓ 帰還まで待ってみました。

20240406_rjnt_39ja119w

お疲れさまでした。

|

« 定点 富山空港 2024/4/2 tue | トップページ | 定点 伏木・富山空港・東八尾 2024/4/7 sun »

うみ」カテゴリの記事

富山空港」カテゴリの記事

コメント

コメントを書く



(ウェブ上には掲載しません)


コメントは記事投稿者が公開するまで表示されません。



« 定点 富山空港 2024/4/2 tue | トップページ | 定点 伏木・富山空港・東八尾 2024/4/7 sun »